FYKT

Keetmanshoop Airport

Keetmanshoop, Namibia
TAF FYKT 192200Z 2000/2100 22006KT CAVOK BECMG 2009/2011 07010KT
Issued Valid From Valid To
Sep-19 @ 22:00 UTC
(3 hours ago)
Sep-20 @ 00:00 UTC
(40 minutes ago)
Sep-21 @ 00:00 UTC
(in 23 hours)
Sep-20 @ 00:00 to Sep-20 @ 09:00
TAF FYKT 192200Z 2000/2100 22006KT CAVOK
Wind Visibility Clouds Conditions
220° at 6 knots 10,000+ meters
  • No significant clouds
Becoming Sep-20 @ 09:00 to Sep-21 @ 00:00
BECMG 2009/2011 07010KT
Wind Visibility Clouds Conditions
70° at 10 knots 10,000+ meters
  • No significant clouds
TAF FYKT 192200Z 2000/2100 22006KT CAVOK BECMG 2009/2011 07010KT
Issued Sep-19 @ 22:00 UTC
(3 hours ago)
Valid From Sep-20 @ 00:00 UTC
(40 minutes ago)
Valid To Sep-21 @ 00:00 UTC
(in 23 hours)
Sep-20 @ 00:00 - Sep-20 @ 09:00
Wind Visibility
220° at 6 knots 10,000+ meters
Clouds
  • No significant clouds
Conditions
Becoming Sep-20 @ 09:00 - Sep-21 @ 00:00
Wind Visibility
70° at 10 knots 10,000+ meters
Clouds
  • No significant clouds
Conditions